Time;durP1;ratioP1;P1;durP2;ratioP2;P2;SDS_P1;SDS_P2;PMS_P1;PMS_P2;Temp;Humidity;BMP_temperature;BMP_pressure;BME280_temperature;BME280_humidity;BME280_pressure;Samples;Min_cycle;Max_cycle;Signal;HPM_P1;HPM_P2
2023/04/03 00:01:14;;;;;;;5.70;0.50;;;2.40;99.90;;;;;;5096492;28;20055;-71
2023/04/03 00:03:43;;;;;;;3.50;0.63;;;2.40;99.90;;;;;;5096541;28;20317;-70
2023/04/03 00:06:11;;;;;;;2.70;0.40;;;2.20;99.90;;;;;;5114713;28;20126;-70
2023/04/03 00:08:38;;;;;;;6.22;1.00;;;2.40;99.90;;;;;;5079796;28;20447;-73
2023/04/03 00:11:05;;;;;;;4.88;0.80;;;2.30;99.90;;;;;;5063301;28;20055;-70
2023/04/03 00:13:31;;;;;;;3.50;0.80;;;2.30;99.90;;;;;;5115090;28;20036;-70
2023/04/03 00:15:57;;;;;;;5.65;0.90;;;2.30;99.90;;;;;;5114470;28;20157;-70
2023/04/03 00:18:23;;;;;;;7.00;1.15;;;2.30;99.90;;;;;;5114478;28;20172;-71
2023/04/03 00:20:49;;;;;;;6.30;0.90;;;2.30;99.90;;;;;;5114005;28;20040;-70
2023/04/03 00:23:16;;;;;;;6.43;0.82;;;2.50;99.90;;;;;;5097154;28;20431;-70
2023/04/03 00:25:42;;;;;;;5.72;1.10;;;2.60;99.90;;;;;;5114282;28;20047;-72
2023/04/03 00:28:08;;;;;;;8.70;1.27;;;2.40;99.90;;;;;;5080195;28;20044;-73
2023/04/03 00:30:34;;;;;;;6.80;1.10;;;2.30;99.90;;;;;;5096224;28;20051;-71
2023/04/03 00:33:00;;;;;;;8.48;1.33;;;2.40;99.90;;;;;;5097044;28;20051;-70
2023/04/03 00:35:26;;;;;;;3.40;0.75;;;2.60;99.90;;;;;;5096655;28;20487;-72
2023/04/03 00:37:54;;;;;;;6.10;0.93;;;2.50;99.90;;;;;;5097013;28;20130;-71
2023/04/03 00:40:20;;;;;;;;;;;2.80;99.90;;;;;;5096287;28;20118;-72
2023/04/03 00:42:47;;;;;;;4.88;1.00;;;;;;;;;;5115018;28;20267;-70
2023/04/03 00:45:13;;;;;;;3.42;0.95;;;2.20;99.90;;;;;;5114164;28;20086;-72
2023/04/03 00:47:40;;;;;;;6.28;1.23;;;2.10;99.90;;;;;;5114272;28;20454;-71
2023/04/03 00:50:07;;;;;;;4.90;0.80;;;2.10;99.90;;;;;;5095734;28;20104;-72
2023/04/03 00:52:33;;;;;;;5.00;0.90;;;2.10;99.90;;;;;;5114356;28;20100;-71
2023/04/03 00:55:03;;;;;;;5.30;0.80;;;2.10;99.90;;;;;;5113732;28;20382;-70
2023/04/03 00:57:31;;;;;;;6.63;0.90;;;2.10;99.90;;;;;;5113209;28;20083;-72
2023/04/03 01:00:08;;;;;;;7.40;1.17;;;2.10;99.90;;;;;;5114234;28;20130;-72
2023/04/03 01:02:35;;;;;;;4.03;0.70;;;2.10;99.90;;;;;;5096201;28;20078;-70
2023/04/03 01:05:00;;;;;;;4.65;0.80;;;2.30;99.90;;;;;;5113416;28;20487;-73
2023/04/03 01:07:30;;;;;;;5.95;0.70;;;2.00;99.90;;;;;;5114262;28;20050;-72
2023/04/03 01:10:02;;;;;;;6.88;0.95;;;2.00;99.90;;;;;;5114216;28;20059;-71
2023/04/03 01:12:31;;;;;;;8.40;0.88;;;2.00;99.90;;;;;;5095536;28;20095;-71
2023/04/03 01:15:07;;;;;;;5.80;0.77;;;2.00;99.90;;;;;;5113697;28;20472;-71
2023/04/03 01:18:09;;;;;;;4.43;0.75;;;2.00;99.90;;;;;;5114264;28;20050;-70
2023/04/03 01:21:16;;;;;;;4.95;0.90;;;2.00;99.90;;;;;;5110663;28;20101;-70
2023/04/03 01:23:48;;;;;;;6.93;1.20;;;1.90;99.90;;;;;;5073790;28;20423;-71
2023/04/03 01:26:14;;;;;;;9.05;1.17;;;1.90;99.90;;;;;;5079073;28;20048;-70
2023/04/03 01:28:40;;;;;;;5.90;1.02;;;1.80;99.90;;;;;;5114138;28;20392;-70
2023/04/03 01:31:26;;;;;;;6.25;1.20;;;1.80;99.90;;;;;;5079626;28;20054;-70
2023/04/03 01:33:52;;;;;;;4.07;0.65;;;1.80;99.90;;;;;;5100293;28;20426;-72
2023/04/03 01:36:28;;;;;;;8.65;1.55;;;1.80;99.90;;;;;;5100338;28;20048;-71
2023/04/03 01:38:55;;;;;;;6.68;1.13;;;1.70;99.90;;;;;;5118318;28;20051;-71
2023/04/03 01:41:21;;;;;;;7.22;0.90;;;1.70;99.90;;;;;;5117429;28;20091;-71
2023/04/03 01:43:48;;;;;;;5.10;1.02;;;1.70;99.90;;;;;;5099359;28;20051;-70
2023/04/03 01:46:15;;;;;;;5.53;1.02;;;1.70;99.90;;;;;;5117046;28;20133;-71
2023/04/03 01:48:41;;;;;;;6.55;1.02;;;1.70;99.90;;;;;;5117378;28;20104;-73
2023/04/03 01:51:06;;;;;;;8.93;1.23;;;1.70;99.90;;;;;;5117209;28;20040;-71
2023/04/03 01:53:32;;;;;;;9.98;1.00;;;1.80;99.90;;;;;;5117157;28;20032;-71
2023/04/03 01:55:58;;;;;;;5.20;0.82;;;1.70;99.90;;;;;;5098764;28;20437;-71
2023/04/03 01:58:24;;;;;;;7.05;1.48;;;1.80;99.90;;;;;;5082145;28;20047;-71
2023/04/03 02:00:51;;;;;;;4.55;1.05;;;1.70;99.90;;;;;;5117387;28;20043;-71
2023/04/03 02:03:17;;;;;;;7.32;0.98;;;1.60;99.90;;;;;;5099837;28;20525;-70
2023/04/03 02:05:43;;;;;;;5.65;1.00;;;1.60;99.90;;;;;;5098888;28;20208;-70
2023/04/03 02:08:08;;;;;;;8.10;1.40;;;1.60;99.90;;;;;;5098939;28;20047;-70
2023/04/03 02:10:34;;;;;;;6.38;1.10;;;1.60;99.90;;;;;;5116947;28;20123;-70
2023/04/03 02:13:00;;;;;;;6.22;1.30;;;1.50;99.90;;;;;;5117311;28;20104;-71
2023/04/03 02:15:26;;;;;;;11.50;1.58;;;1.50;99.90;;;;;;5065833;28;20127;-70
2023/04/03 02:17:52;;;;;;;10.25;1.38;;;1.40;99.90;;;;;;5099345;28;20402;-71
2023/04/03 02:20:18;;;;;;;7.38;1.10;;;1.40;99.90;;;;;;5081692;28;20052;-72
2023/04/03 02:22:44;;;;;;;4.45;0.75;;;1.40;99.90;;;;;;5099159;28;20044;-71
2023/04/03 02:25:10;;;;;;;6.88;1.10;;;1.40;99.90;;;;;;5116681;28;20048;-71
2023/04/03 02:27:36;;;;;;;6.30;1.00;;;1.40;99.90;;;;;;5098460;28;20043;-71
2023/04/03 02:30:03;;;;;;;9.45;1.20;;;1.40;99.90;;;;;;5116568;28;20047;-71
2023/04/03 02:32:29;;;;;;;11.90;1.58;;;1.40;99.90;;;;;;5098819;28;20075;-71
2023/04/03 02:34:55;;;;;;;8.85;1.60;;;1.40;99.90;;;;;;5098377;28;20126;-71
2023/04/03 02:37:21;;;;;;;6.77;1.20;;;1.30;99.90;;;;;;5116452;28;20044;-71
2023/04/03 02:39:47;;;;;;;9.45;1.95;;;1.30;99.90;;;;;;5116106;28;20460;-70
2023/04/03 02:42:13;;;;;;;7.10;1.20;;;1.20;99.90;;;;;;5116342;28;20116;-71
2023/04/03 02:44:39;;;;;;;8.52;2.03;;;1.20;99.90;;;;;;5097515;28;20040;-71
2023/04/03 02:47:05;;;;;;;8.60;1.63;;;1.20;99.90;;;;;;5115120;28;20434;-71
2023/04/03 02:49:31;;;;;;;9.05;1.65;;;1.10;99.90;;;;;;5116140;28;20047;-71
2023/04/03 02:51:57;;;;;;;9.80;2.00;;;1.00;99.90;;;;;;5082179;28;20055;-71
2023/04/03 02:54:24;;;;;;;7.38;1.95;;;1.00;99.90;;;;;;5098723;28;20051;-71
2023/04/03 02:56:50;;;;;;;8.48;1.40;;;1.00;99.90;;;;;;5116527;28;20097;-71
2023/04/03 02:59:16;;;;;;;5.90;1.42;;;0.90;99.90;;;;;;5116237;28;20079;-71
2023/04/03 03:01:42;;;;;;;6.60;1.55;;;0.90;99.90;;;;;;5116126;28;20082;-72
2023/04/03 03:04:08;;;;;;;4.85;1.23;;;0.90;99.90;;;;;;5098022;28;20045;-71
2023/04/03 03:06:33;;;;;;;7.60;1.60;;;0.90;99.90;;;;;;5115975;28;20036;-71
2023/04/03 03:08:59;;;;;;;6.60;1.83;;;0.90;99.90;;;;;;5080563;28;20050;-70
2023/04/03 03:11:25;;;;;;;8.35;1.58;;;0.80;99.90;;;;;;5116400;28;20052;-71
2023/04/03 03:13:51;;;;;;;10.65;1.70;;;0.80;99.90;;;;;;5097842;28;20040;-71
2023/04/03 03:16:17;;;;;;;9.05;1.73;;;0.80;99.90;;;;;;5115713;28;20052;-73
2023/04/03 03:18:43;;;;;;;16.10;1.88;;;0.80;99.90;;;;;;5097798;28;20134;-71
2023/04/03 03:21:09;;;;;;;7.63;1.80;;;0.70;99.90;;;;;;5097398;28;20044;-71
2023/04/03 03:23:35;;;;;;;9.55;1.70;;;0.70;99.90;;;;;;5115635;28;20048;-71
2023/04/03 03:26:07;;;;;;;7.78;1.90;;;0.60;99.90;;;;;;5080690;28;20075;-71
2023/04/03 03:28:34;;;;;;;7.13;1.52;;;0.60;99.90;;;;;;5115462;28;20044;-72
2023/04/03 03:31:00;;;;;;;9.37;1.87;;;0.60;99.90;;;;;;5116130;28;20110;-70
2023/04/03 03:33:26;;;;;;;8.35;2.30;;;0.50;99.90;;;;;;5097104;28;20139;-70
2023/04/03 03:35:53;;;;;;;8.65;2.05;;;0.50;99.90;;;;;;5115288;28;20070;-70
2023/04/03 03:38:19;;;;;;;;;;;0.40;99.90;;;;;;5115572;28;20043;-71
2023/04/03 03:40:48;;;;;;;12.35;2.72;;;0.40;99.90;;;;;;5096939;28;20046;-72
2023/04/03 03:43:14;;;;;;;8.70;2.90;;;0.30;99.90;;;;;;5097319;28;20050;-71
2023/04/03 03:45:40;;;;;;;7.18;2.22;;;0.30;99.90;;;;;;5114861;28;20395;-71
2023/04/03 03:48:05;;;;;;;7.90;2.30;;;0.20;99.90;;;;;;5114984;28;20126;-77
2023/04/03 03:50:31;;;;;;;6.32;1.60;;;0.20;99.90;;;;;;5096806;28;20118;-72
2023/04/03 03:52:57;;;;;;;6.68;1.88;;;0.20;99.90;;;;;;5096913;28;20445;-72
2023/04/03 03:55:23;;;;;;;8.02;1.80;;;0.20;99.90;;;;;;5096539;28;20077;-71
2023/04/03 03:57:49;;;;;;;7.85;1.75;;;0.20;99.90;;;;;;5114938;28;20039;-71
2023/04/03 04:00:15;;;;;;;7.72;1.70;;;0.20;99.90;;;;;;5114721;28;20063;-73
2023/04/03 04:02:41;;;;;;;6.90;1.53;;;0.10;99.90;;;;;;5115091;28;20467;-70
2023/04/03 04:05:07;;;;;;;7.53;1.88;;;0.20;99.90;;;;;;5114731;28;20043;-71
2023/04/03 04:07:33;;;;;;;7.00;2.00;;;0.20;99.90;;;;;;5114675;28;20406;-71
2023/04/03 04:09:58;;;;;;;10.18;1.75;;;0.20;99.90;;;;;;5115131;28;20043;-70
2023/04/03 04:12:24;;;;;;;5.30;1.70;;;0.10;99.90;;;;;;5079786;28;20430;-71
2023/04/03 04:14:50;;;;;;;11.20;2.15;;;0.10;99.90;;;;;;5096627;28;20364;-73
2023/04/03 04:17:16;;;;;;;13.13;2.38;;;0.10;99.90;;;;;;5113499;28;20368;-72
2023/04/03 04:19:42;;;;;;;8.57;1.80;;;0.10;99.90;;;;;;5114381;28;20151;-71
2023/04/03 04:22:07;;;;;;;10.35;1.70;;;0.20;99.90;;;;;;5097120;28;20087;-71
2023/04/03 04:24:33;;;;;;;7.93;1.63;;;0.10;99.90;;;;;;5114829;28;20458;-71
2023/04/03 04:26:59;;;;;;;5.82;1.98;;;0.10;99.90;;;;;;5079470;28;20043;-71
2023/04/03 04:29:24;;;;;;;6.75;1.63;;;0.20;99.90;;;;;;5096123;28;20052;-72
2023/04/03 04:31:50;;;;;;;11.23;1.90;;;0.20;99.90;;;;;;5114231;28;20129;-73
2023/04/03 04:34:16;;;;;;;8.13;1.88;;;0.20;99.90;;;;;;5114037;28;20075;-71
2023/04/03 04:36:42;;;;;;;10.95;1.88;;;0.20;99.90;;;;;;5113868;28;20452;-71
2023/04/03 04:39:08;;;;;;;13.43;2.28;;;0.30;99.90;;;;;;5114026;28;20096;-71
2023/04/03 04:41:34;;;;;;;6.82;1.80;;;0.20;99.90;;;;;;5095639;28;20130;-72
2023/04/03 04:44:00;;;;;;;6.97;1.58;;;0.30;99.90;;;;;;5095987;28;20047;-71
2023/04/03 04:46:26;;;;;;;9.38;1.95;;;0.20;99.90;;;;;;5095989;28;20039;-73
2023/04/03 04:48:52;;;;;;;6.07;1.25;;;0.20;99.90;;;;;;5080101;28;20482;-73
2023/04/03 04:51:18;;;;;;;6.30;1.90;;;0.20;99.90;;;;;;5113594;28;20043;-71
2023/04/03 04:53:44;;;;;;;9.43;1.90;;;0.10;99.90;;;;;;5113725;28;20131;-71
2023/04/03 04:56:10;;;;;;;11.95;3.17;;;0.10;99.90;;;;;;5095666;28;20412;-74
2023/04/03 04:58:36;;;;;;;10.20;2.15;;;0.00;99.90;;;;;;5096672;28;20450;-71
2023/04/03 05:01:06;;;;;;;9.40;2.30;;;0.00;99.90;;;;;;5114101;28;20464;-70
2023/04/03 05:03:33;;;;;;;10.75;3.15;;;-0.10;99.90;;;;;;5114572;28;20388;-73
2023/04/03 05:05:59;;;;;;;8.67;2.30;;;-0.10;99.90;;;;;;5113089;28;20499;-70
2023/04/03 05:08:25;;;;;;;8.77;2.33;;;-0.10;99.90;;;;;;5114495;28;20273;-71
2023/04/03 05:10:51;;;;;;;9.40;2.40;;;-0.10;99.90;;;;;;5079831;28;20127;-71
2023/04/03 05:13:17;;;;;;;8.10;1.75;;;-0.10;99.90;;;;;;5113664;28;20086;-75
2023/04/03 05:15:42;;;;;;;9.43;2.38;;;-0.10;99.90;;;;;;5078548;28;20039;-73
2023/04/03 05:18:08;;;;;;;8.05;1.88;;;-0.10;99.90;;;;;;5113687;28;20062;-72
2023/04/03 05:20:34;;;;;;;9.90;2.30;;;0.00;99.90;;;;;;5113749;28;20044;-71
2023/04/03 05:23:00;;;;;;;9.25;2.10;;;0.00;99.90;;;;;;5114190;28;20047;-73
2023/04/03 05:25:26;;;;;;;10.50;2.30;;;0.00;99.90;;;;;;5113390;28;20114;-72
2023/04/03 05:27:51;;;;;;;7.00;2.17;;;0.00;99.90;;;;;;5112620;28;20043;-72
2023/04/03 05:30:18;;;;;;;9.65;2.10;;;0.00;99.90;;;;;;5114067;28;20130;-73
2023/04/03 05:32:44;;;;;;;11.27;2.10;;;0.00;99.90;;;;;;5095282;28;20140;-71
2023/04/03 05:35:10;;;;;;;9.38;2.40;;;0.00;99.90;;;;;;5113355;28;20094;-71
2023/04/03 05:37:36;;;;;;;12.30;2.53;;;0.00;99.90;;;;;;5113049;28;20536;-72
2023/04/03 05:40:04;;;;;;;10.77;2.17;;;0.10;99.90;;;;;;5095128;28;20122;-72
2023/04/03 05:42:29;;;;;;;8.85;2.35;;;0.10;99.90;;;;;;5078442;28;20091;-71
2023/04/03 05:44:55;;;;;;;10.40;2.72;;;0.20;99.90;;;;;;5113220;28;20083;-71
2023/04/03 05:47:22;;;;;;;9.48;2.22;;;0.10;99.90;;;;;;5095064;28;20048;-77
2023/04/03 05:49:48;;;;;;;12.73;2.88;;;0.20;99.90;;;;;;5095366;28;20043;-74
2023/04/03 05:52:29;;;;;;;8.05;2.28;;;0.20;99.90;;;;;;5095190;28;20145;-72
2023/04/03 05:54:55;;;;;;;11.63;2.72;;;0.30;99.90;;;;;;5113685;28;20349;-74
2023/04/03 05:57:21;;;;;;;12.25;2.33;;;0.40;99.90;;;;;;5095009;28;20096;-73
2023/04/03 05:59:47;;;;;;;20.65;2.70;;;0.40;99.90;;;;;;5095408;28;20048;-74
2023/04/03 06:02:16;;;;;;;12.83;3.13;;;0.50;99.90;;;;;;5113161;28;20050;-72
2023/04/03 06:04:42;;;;;;;9.60;2.30;;;0.50;99.90;;;;;;5095051;28;20282;-73
2023/04/03 06:07:13;;;;;;;10.15;2.65;;;0.60;99.90;;;;;;5112829;28;20054;-74
2023/04/03 06:09:39;;;;;;;8.30;2.10;;;0.60;99.90;;;;;;5113135;28;20058;-71
2023/04/03 06:12:05;;;;;;;11.23;2.35;;;0.60;99.90;;;;;;5095208;28;20039;-71
2023/04/03 06:14:31;;;;;;;12.65;2.10;;;0.70;99.90;;;;;;5113126;28;20046;-72
2023/04/03 06:16:57;;;;;;;15.75;2.92;;;0.70;99.90;;;;;;5078170;28;20051;-73
2023/04/03 06:19:23;;;;;;;9.13;2.92;;;0.80;99.90;;;;;;5115999;28;20229;-74
2023/04/03 06:21:49;;;;;;;7.63;2.05;;;0.90;99.90;;;;;;5081807;28;20051;-74
2023/04/03 06:24:16;;;;;;;7.50;2.20;;;0.90;99.90;;;;;;5098613;28;20043;-73
2023/04/03 06:26:42;;;;;;;7.55;2.00;;;1.00;99.90;;;;;;5099097;28;20051;-73
2023/04/03 06:29:08;;;;;;;11.70;1.88;;;1.00;99.90;;;;;;5081966;28;20382;-72
2023/04/03 06:31:36;;;;;;;8.23;1.65;;;1.10;99.90;;;;;;5116117;28;20478;-73
2023/04/03 06:34:02;;;;;;;8.27;1.70;;;1.20;99.90;;;;;;5116318;28;20048;-71
2023/04/03 06:36:29;;;;;;;6.43;1.45;;;1.20;99.90;;;;;;5116372;28;20383;-77
2023/04/03 06:38:55;;;;;;;6.40;1.20;;;1.30;99.90;;;;;;5116567;28;20118;-72
2023/04/03 06:41:21;;;;;;;6.78;1.83;;;1.40;99.90;;;;;;5116343;28;20142;-72
2023/04/03 06:43:47;;;;;;;10.88;1.90;;;1.40;99.90;;;;;;5115854;28;20502;-73
2023/04/03 06:46:18;;;;;;;8.85;1.55;;;1.40;99.90;;;;;;5098070;28;20134;-73
2023/04/03 06:48:45;;;;;;;7.68;1.52;;;1.50;99.90;;;;;;5098098;28;20052;-73
2023/04/03 06:51:22;;;;;;;8.90;1.13;;;1.50;99.90;;;;;;5116803;28;20058;-72
2023/04/03 06:53:48;;;;;;;;;;;1.60;99.90;;;;;;5098587;28;20452;-72
2023/04/03 06:56:15;;;;;;;8.55;1.35;;;1.70;99.90;;;;;;5116040;28;19919;-72
2023/04/03 06:58:41;;;;;;;10.18;1.60;;;1.70;99.90;;;;;;5098170;28;20142;-72
2023/04/03 07:01:09;;;;;;;7.82;1.60;;;1.80;99.90;;;;;;5098195;28;20081;-72
2023/04/03 07:03:35;;;;;;;10.77;1.73;;;1.90;99.90;;;;;;5080541;28;20092;-71
2023/04/03 07:06:01;;;;;;;9.82;1.73;;;1.90;99.90;;;;;;5115698;28;20398;-71
2023/04/03 07:08:27;;;;;;;4.25;1.00;;;1.90;99.90;;;;;;5080695;28;20043;-72
2023/04/03 07:10:52;;;;;;;6.32;1.35;;;1.90;99.90;;;;;;5097166;28;20525;-74
2023/04/03 07:13:18;;;;;;;8.30;1.33;;;2.00;99.90;;;;;;5097583;28;20096;-73
2023/04/03 07:15:44;;;;;;;9.05;1.27;;;2.10;99.90;;;;;;5115675;28;20108;-71
2023/04/03 07:18:10;;;;;;;8.20;1.40;;;2.20;99.90;;;;;;5097536;28;20058;-73
2023/04/03 07:20:36;;;;;;;7.32;1.63;;;2.20;99.90;;;;;;5115384;28;20047;-72
2023/04/03 07:23:02;;;;;;;7.95;1.60;;;2.30;99.90;;;;;;5115447;28;20050;-73
2023/04/03 07:25:28;;;;;;;8.25;1.77;;;2.40;99.90;;;;;;5115423;28;20118;-72
2023/04/03 07:27:54;;;;;;;8.60;1.83;;;2.50;99.90;;;;;;5115356;28;20047;-72
2023/04/03 07:30:21;;;;;;;7.78;1.27;;;2.60;99.90;;;;;;5114873;28;20476;-72
2023/04/03 07:32:46;;;;;;;7.50;1.77;;;2.60;99.90;;;;;;5115205;28;20046;-72
2023/04/03 07:35:12;;;;;;;6.90;1.88;;;2.60;99.90;;;;;;5115196;28;20048;-72
2023/04/03 07:37:38;;;;;;;8.57;1.30;;;2.70;99.90;;;;;;5097937;28;20047;-73
2023/04/03 07:40:05;;;;;;;13.32;1.90;;;2.80;99.90;;;;;;5096737;28;20458;-73
2023/04/03 07:42:31;;;;;;;4.90;0.82;;;2.90;99.90;;;;;;5097752;28;20060;-71
2023/04/03 07:44:57;;;;;;;7.68;1.60;;;3.10;99.90;;;;;;5080075;28;20050;-74
2023/04/03 07:47:23;;;;;;;9.90;1.92;;;3.10;99.90;;;;;;5080020;28;20059;-72
2023/04/03 07:49:48;;;;;;;13.90;5.13;;;3.10;99.90;;;;;;5115361;28;20059;-71
2023/04/03 07:52:15;;;;;;;6.28;0.82;;;3.20;99.90;;;;;;5080740;28;20460;-72
2023/04/03 07:54:41;;;;;;;6.93;0.82;;;3.20;99.90;;;;;;5114827;28;20077;-72
2023/04/03 07:57:07;;;;;;;7.70;1.25;;;3.30;99.90;;;;;;5115091;28;20039;-72
2023/04/03 07:59:33;;;;;;;6.00;0.98;;;3.40;99.90;;;;;;5096599;28;20058;-74
2023/04/03 08:01:59;;;;;;;6.57;1.10;;;3.40;99.90;;;;;;5096970;28;20520;-72
2023/04/03 08:04:26;;;;;;;7.32;1.38;;;3.50;99.90;;;;;;5096640;28;20134;-72
2023/04/03 08:06:52;;;;;;;5.18;1.00;;;3.60;99.90;;;;;;5115065;28;20081;-73
2023/04/03 08:09:19;;;;;;;11.27;0.95;;;3.70;99.90;;;;;;5114208;28;20493;-73
2023/04/03 08:11:45;;;;;;;4.97;1.10;;;3.70;99.90;;;;;;5096305;28;20051;-73
2023/04/03 08:14:16;;;;;;;3.65;1.02;;;3.80;99.90;;;;;;5114247;28;20440;-72
2023/04/03 08:16:43;;;;;;;9.05;1.02;;;4.00;99.90;;;;;;5079590;28;20142;-73
2023/04/03 08:19:10;;;;;;;5.00;0.98;;;4.10;99.90;;;;;;5115054;28;20081;-74
2023/04/03 08:21:36;;;;;;;4.25;0.70;;;4.10;99.90;;;;;;5113055;28;20043;-73
2023/04/03 08:24:03;;;;;;;6.88;0.63;;;4.20;99.90;;;;;;5114179;28;20194;-75
2023/04/03 08:26:29;;;;;;;5.55;0.90;;;4.20;99.90;;;;;;5114347;28;20376;-72
2023/04/03 08:28:54;;;;;;;5.75;0.80;;;4.30;99.90;;;;;;5096169;28;20054;-73
2023/04/03 08:31:20;;;;;;;6.38;0.88;;;4.40;99.90;;;;;;5114641;28;20468;-72
2023/04/03 08:33:47;;;;;;;6.20;0.90;;;4.50;99.90;;;;;;5096088;28;20043;-74
2023/04/03 08:36:24;;;;;;;6.07;0.70;;;4.50;99.90;;;;;;5114043;28;20051;-71
2023/04/03 08:38:51;;;;;;;4.63;0.60;;;4.60;99.90;;;;;;5114702;28;20066;-72
2023/04/03 08:41:20;;;;;;;3.92;0.80;;;4.70;99.90;;;;;;5095204;28;20060;-73
2023/04/03 08:43:52;;;;;;;4.45;0.73;;;4.70;99.90;;;;;;5113947;28;20135;-74
2023/04/03 08:46:22;;;;;;;7.55;0.90;;;4.90;99.90;;;;;;5113979;28;20392;-74
2023/04/03 08:48:49;;;;;;;3.10;0.45;;;;;;;;;;5096600;28;20043;-72
2023/04/03 08:51:19;;;;;;;3.78;0.70;;;5.20;99.90;;;;;;5096124;28;20044;-72
2023/04/03 08:54:03;;;;;;;4.38;0.60;;;5.10;99.90;;;;;;5113615;28;20036;-72
2023/04/03 08:56:31;;;;;;;3.90;0.63;;;5.10;99.90;;;;;;5113890;28;20043;-75
2023/04/03 08:59:13;;;;;;;4.15;0.60;;;5.20;99.90;;;;;;5078781;28;20142;-73
2023/04/03 09:01:40;;;;;;;5.53;0.60;;;5.30;99.90;;;;;;5113793;28;20055;-71
2023/04/03 09:04:14;;;;;;;4.20;0.70;;;5.20;99.90;;;;;;5113527;28;20040;-73
2023/04/03 09:06:43;;;;;;;5.88;0.60;;;5.30;99.90;;;;;;5095611;28;20491;-74
2023/04/03 09:09:36;;;;;;;4.28;0.57;;;5.40;99.90;;;;;;5078866;28;20066;-72
2023/04/03 09:12:20;;;;;;;3.58;0.50;;;5.50;99.90;;;;;;5096548;28;20100;-73
2023/04/03 09:15:20;;;;;;;2.05;0.30;;;5.50;99.90;;;;;;5113666;28;20487;-74
2023/04/03 09:18:04;;;;;;;3.55;0.50;;;5.60;99.90;;;;;;5079710;28;20101;-74
2023/04/03 09:20:51;;;;;;;4.53;0.40;;;5.70;99.90;;;;;;5096052;28;20040;-72
2023/04/03 09:23:23;;;;;;;5.45;0.40;;;5.70;99.90;;;;;;5079505;28;20055;-73
2023/04/03 09:25:50;;;;;;;5.80;0.40;;;5.80;99.90;;;;;;5095379;28;20039;-71
2023/04/03 09:28:17;;;;;;;3.28;0.35;;;5.80;99.90;;;;;;5095407;28;20043;-74
2023/04/03 09:30:42;;;;;;;2.95;0.50;;;5.90;99.90;;;;;;5095195;28;20051;-72
2023/04/03 09:33:09;;;;;;;1.35;0.35;;;5.90;99.90;;;;;;5113377;28;20400;-72
2023/04/03 09:35:36;;;;;;;6.20;0.85;;;6.00;99.90;;;;;;5095198;28;20377;-73
2023/04/03 09:38:08;;;;;;;4.97;0.60;;;6.10;99.90;;;;;;5095013;28;20523;-73
2023/04/03 09:40:44;;;;;;;6.85;0.93;;;6.10;99.90;;;;;;5113372;28;20056;-75
2023/04/03 09:43:30;;;;;;;6.72;0.50;;;6.20;99.90;;;;;;5113687;28;20047;-72
2023/04/03 09:46:16;;;;;;;2.27;0.50;;;6.20;99.90;;;;;;5061845;28;20043;-74
2023/04/03 09:48:51;;;;;;;5.85;0.45;;;6.30;99.30;;;;;;5079007;28;20289;-73
2023/04/03 09:51:16;;;;;;;4.70;0.50;;;6.40;99.60;;;;;;5113121;28;20043;-75
2023/04/03 09:53:44;;;;;;;4.43;0.50;;;6.40;98.80;;;;;;5098488;28;20051;-72
2023/04/03 09:56:16;;;;;;;;;;;6.50;98.70;;;;;;5099315;28;20067;-74
2023/04/03 09:58:44;;;;;;;5.68;0.68;;;6.50;98.60;;;;;;5116017;28;20367;-73
2023/04/03 10:01:30;;;;;;;3.08;0.50;;;6.60;98.20;;;;;;5099322;28;20047;-74
2023/04/03 10:04:07;;;;;;;2.17;0.40;;;6.70;95.40;;;;;;5098801;28;20036;-77
2023/04/03 10:06:36;;;;;;;2.85;0.20;;;6.70;95.70;;;;;;5081870;28;20079;-75
2023/04/03 10:09:05;;;;;;;1.98;0.30;;;6.80;93.60;;;;;;5116981;28;20488;-73
2023/04/03 10:11:31;;;;;;;2.55;0.82;;;6.90;94.20;;;;;;5117550;28;20047;-70
2023/04/03 10:14:00;;;;;;;2.47;0.20;;;6.80;94.50;;;;;;5098685;28;20044;-78
2023/04/03 10:16:57;;;;;;;2.88;0.60;;;6.90;93.70;;;;;;5098771;28;20044;-76
2023/04/03 10:19:23;;;;;;;2.80;0.95;;;6.90;91.90;;;;;;5099772;28;20051;-73
2023/04/03 10:21:57;;;;;;;7.50;2.00;;;6.90;92.30;;;;;;5117543;28;20435;-75
2023/04/03 10:24:36;;;;;;;3.35;0.50;;;7.00;92.00;;;;;;5117662;28;20109;-75
2023/04/03 10:27:13;;;;;;;4.63;0.63;;;7.00;92.00;;;;;;5116643;28;20051;-74
2023/04/03 10:29:51;;;;;;;;;;;7.00;91.80;;;;;;5083114;28;20054;-72
2023/04/03 10:32:45;;;;;;;3.55;0.30;;;7.10;90.80;;;;;;5116573;28;19927;-75
2023/04/03 10:35:51;;;;;;;3.17;0.50;;;7.00;90.90;;;;;;5063825;28;20441;-76
2023/04/03 10:38:25;;;;;;;1.08;0.28;;;7.10;91.40;;;;;;5099432;28;20043;-76
2023/04/03 10:41:04;;;;;;;3.80;0.40;;;7.10;91.10;;;;;;5099129;28;20073;-76
2023/04/03 10:43:49;;;;;;;3.47;0.50;;;7.10;91.50;;;;;;5117139;28;20048;-73
2023/04/03 10:46:31;;;;;;;2.78;0.32;;;7.10;90.60;;;;;;5099136;28;20040;-71
2023/04/03 10:48:57;;;;;;;2.80;0.38;;;7.20;91.30;;;;;;5117159;28;20053;-74
2023/04/03 10:51:29;;;;;;;2.38;0.60;;;7.20;91.70;;;;;;5116107;28;20051;-77
2023/04/03 10:54:26;;;;;;;2.50;0.40;;;7.20;91.40;;;;;;5098576;28;20051;-74
2023/04/03 10:57:11;;;;;;;3.92;0.30;;;7.30;91.30;;;;;;5082977;28;20052;-73
2023/04/03 10:59:40;;;;;;;1.15;0.22;;;7.30;91.90;;;;;;5116740;28;20039;-75
2023/04/03 11:02:12;;;;;;;1.50;0.20;;;7.60;89.80;;;;;;5098595;28;20101;-73
2023/04/03 11:04:41;;;;;;;4.50;0.50;;;7.60;89.60;;;;;;5115692;28;20043;-75
2023/04/03 11:07:19;;;;;;;4.10;0.47;;;7.60;90.60;;;;;;5115834;28;20054;-74
2023/04/03 11:09:48;;;;;;;4.18;0.40;;;7.50;91.40;;;;;;5115888;28;20483;-73
2023/04/03 11:12:40;;;;;;;2.95;0.30;;;7.60;91.10;;;;;;5115814;28;20044;-73
2023/04/03 11:15:16;;;;;;;2.22;0.50;;;7.70;90.20;;;;;;5115767;28;20035;-74
2023/04/03 11:17:50;;;;;;;4.30;0.47;;;7.70;90.60;;;;;;5115962;28;20051;-74
2023/04/03 11:20:27;;;;;;;1.25;0.20;;;7.70;90.50;;;;;;5098558;28;20051;-74
2023/04/03 11:23:01;;;;;;;0.88;0.15;;;7.90;90.20;;;;;;5098037;28;20408;-74
2023/04/03 11:25:32;;;;;;;2.78;0.38;;;7.80;89.30;;;;;;5115626;28;20039;-75
2023/04/03 11:28:06;;;;;;;2.10;0.40;;;7.80;90.70;;;;;;5115619;28;20105;-72
2023/04/03 11:31:00;;;;;;;2.53;0.40;;;7.80;90.80;;;;;;5098412;28;20364;-73
2023/04/03 11:33:28;;;;;;;2.35;0.30;;;7.80;89.40;;;;;;5115853;28;20036;-74
2023/04/03 11:36:31;;;;;;;3.97;0.30;;;7.90;90.10;;;;;;5116123;28;20047;-77
2023/04/03 11:39:07;;;;;;;2.38;0.30;;;8.00;88.70;;;;;;5114664;28;20138;-73
2023/04/03 11:41:33;;;;;;;2.70;0.32;;;8.10;88.70;;;;;;5115088;28;20066;-73
2023/04/03 11:44:26;;;;;;;1.80;0.22;;;8.10;89.10;;;;;;5097164;28;20043;-74
2023/04/03 11:46:55;;;;;;;4.78;0.40;;;8.00;88.90;;;;;;5096589;28;20499;-72
2023/04/03 11:49:57;;;;;;;1.48;0.40;;;7.90;89.60;;;;;;5115554;28;20043;-72
2023/04/03 11:52:43;;;;;;;1.85;0.30;;;8.00;90.90;;;;;;5114922;28;20062;-73
2023/04/03 11:55:21;;;;;;;3.78;0.30;;;8.20;89.60;;;;;;5066147;28;20055;-73
2023/04/03 11:58:00;;;;;;;3.17;0.35;;;8.30;89.50;;;;;;5097019;28;20047;-73
2023/04/03 12:00:46;;;;;;;2.42;0.30;;;8.30;89.30;;;;;;5114698;28;20104;-73
2023/04/03 12:03:26;;;;;;;2.33;0.40;;;8.20;90.50;;;;;;5115149;28;20090;-73
2023/04/03 12:06:18;;;;;;;3.67;0.75;;;8.30;89.00;;;;;;5115446;28;20062;-74
2023/04/03 12:08:45;;;;;;;5.57;0.60;;;8.30;90.20;;;;;;5096587;28;20051;-72
2023/04/03 12:11:14;;;;;;;2.53;0.40;;;8.40;89.90;;;;;;5079536;28;20051;-72
2023/04/03 12:13:49;;;;;;;3.08;0.40;;;8.40;90.20;;;;;;5114473;28;20101;-74
2023/04/03 12:16:26;;;;;;;5.20;0.30;;;8.40;90.10;;;;;;5096334;28;20098;-74
2023/04/03 12:18:55;;;;;;;1.60;0.30;;;8.40;89.20;;;;;;5096720;28;20056;-71
2023/04/03 12:21:44;;;;;;;3.05;0.47;;;8.40;89.70;;;;;;5096230;28;20467;-73
2023/04/03 12:24:10;;;;;;;3.17;0.50;;;8.50;90.10;;;;;;5114592;28;20051;-75
2023/04/03 12:27:14;;;;;;;1.80;0.30;;;8.50;89.30;;;;;;5096184;28;20044;-73
2023/04/03 12:30:03;;;;;;;2.10;0.40;;;8.60;89.70;;;;;;5089914;28;20089;-73
2023/04/03 12:32:56;;;;;;;2.90;0.40;;;8.50;89.30;;;;;;5096769;28;20043;-73
2023/04/03 12:35:35;;;;;;;3.75;0.50;;;8.60;87.20;;;;;;5114350;28;20043;-74
2023/04/03 12:38:24;;;;;;;3.08;0.68;;;8.60;85.80;;;;;;5096162;28;20123;-71
2023/04/03 12:40:57;;;;;;;1.95;0.40;;;8.60;89.00;;;;;;5096156;28;20491;-72
2023/04/03 12:43:41;;;;;;;2.78;0.40;;;8.70;87.50;;;;;;5096559;28;20138;-74
2023/04/03 12:46:18;;;;;;;6.40;0.40;;;8.60;83.80;;;;;;5114780;28;20039;-73
2023/04/03 12:48:51;;;;;;;1.90;0.32;;;8.60;88.20;;;;;;5114800;28;20047;-71
2023/04/03 12:51:39;;;;;;;5.00;0.68;;;8.60;88.40;;;;;;5114330;28;20051;-71
2023/04/03 12:54:34;;;;;;;3.20;0.60;;;8.60;86.90;;;;;;5096276;28;20079;-72
2023/04/03 12:57:20;;;;;;;3.17;0.50;;;8.70;87.80;;;;;;5114736;28;20116;-73
2023/04/03 12:59:47;;;;;;;4.67;0.40;;;8.70;87.80;;;;;;5113850;28;20105;-71
2023/04/03 13:02:34;;;;;;;1.52;0.50;;;8.80;87.30;;;;;;5096011;28;20056;-74
2023/04/03 13:05:04;;;;;;;;;;;8.80;87.60;;;;;;5115012;28;20043;-72
2023/04/03 13:07:34;;;;;;;3.55;0.60;;;8.80;88.30;;;;;;5096555;28;19919;-73
2023/04/03 13:10:10;;;;;;;3.40;0.50;;;8.80;89.20;;;;;;5078400;28;20491;-73
2023/04/03 13:12:50;;;;;;;3.38;0.52;;;8.90;89.40;;;;;;5113434;28;20043;-71
2023/04/03 13:15:21;;;;;;;2.00;0.35;;;9.00;89.10;;;;;;5096322;28;20418;-74